sensor_id;sensor_type;location;lat;lon;timestamp;P1;durP1;ratioP1;P2;durP2;ratioP2
75698;SDS011;64313;51.018;13.742;2023-04-25T00:00:56;4.25;;;1.60;;
75698;SDS011;64313;51.018;13.742;2023-04-25T00:03:22;4.20;;;1.48;;
75698;SDS011;64313;51.018;13.742;2023-04-25T00:05:50;3.47;;;1.40;;
75698;SDS011;64313;51.018;13.742;2023-04-25T00:08:16;6.38;;;1.70;;
75698;SDS011;64313;51.018;13.742;2023-04-25T00:10:42;3.95;;;1.52;;
75698;SDS011;64313;51.018;13.742;2023-04-25T00:13:07;4.38;;;1.40;;
75698;SDS011;64313;51.018;13.742;2023-04-25T00:15:33;4.45;;;1.50;;
75698;SDS011;64313;51.018;13.742;2023-04-25T00:17:58;4.10;;;1.50;;
75698;SDS011;64313;51.018;13.742;2023-04-25T00:20:23;3.50;;;1.60;;
75698;SDS011;64313;51.018;13.742;2023-04-25T00:22:49;3.90;;;1.50;;
75698;SDS011;64313;51.018;13.742;2023-04-25T00:25:15;5.63;;;1.48;;
75698;SDS011;64313;51.018;13.742;2023-04-25T00:27:41;4.50;;;1.80;;
75698;SDS011;64313;51.018;13.742;2023-04-25T00:30:07;4.80;;;1.83;;
75698;SDS011;64313;51.018;13.742;2023-04-25T00:32:32;5.35;;;1.88;;
75698;SDS011;64313;51.018;13.742;2023-04-25T00:34:58;5.75;;;1.77;;
75698;SDS011;64313;51.018;13.742;2023-04-25T00:37:23;5.60;;;2.00;;
75698;SDS011;64313;51.018;13.742;2023-04-25T00:39:48;6.90;;;2.20;;
75698;SDS011;64313;51.018;13.742;2023-04-25T00:42:14;9.77;;;2.65;;
75698;SDS011;64313;51.018;13.742;2023-04-25T00:44:40;7.30;;;3.10;;
75698;SDS011;64313;51.018;13.742;2023-04-25T00:47:06;9.50;;;2.67;;
75698;SDS011;64313;51.018;13.742;2023-04-25T00:49:32;7.18;;;2.63;;
75698;SDS011;64313;51.018;13.742;2023-04-25T00:51:57;6.80;;;2.55;;
75698;SDS011;64313;51.018;13.742;2023-04-25T00:54:23;5.50;;;2.42;;
75698;SDS011;64313;51.018;13.742;2023-04-25T00:56:48;6.55;;;2.55;;
75698;SDS011;64313;51.018;13.742;2023-04-25T00:59:14;5.15;;;2.30;;
75698;SDS011;64313;51.018;13.742;2023-04-25T01:01:40;6.13;;;2.28;;
75698;SDS011;64313;51.018;13.742;2023-04-25T01:04:06;6.32;;;2.35;;
75698;SDS011;64313;51.018;13.742;2023-04-25T01:06:32;4.57;;;1.98;;
75698;SDS011;64313;51.018;13.742;2023-04-25T01:08:57;5.43;;;2.28;;
75698;SDS011;64313;51.018;13.742;2023-04-25T01:11:24;4.53;;;2.10;;
75698;SDS011;64313;51.018;13.742;2023-04-25T01:13:50;4.85;;;2.33;;
75698;SDS011;64313;51.018;13.742;2023-04-25T01:16:15;5.10;;;1.90;;
75698;SDS011;64313;51.018;13.742;2023-04-25T01:18:41;6.47;;;2.40;;
75698;SDS011;64313;51.018;13.742;2023-04-25T01:21:08;5.70;;;2.08;;
75698;SDS011;64313;51.018;13.742;2023-04-25T01:23:35;5.07;;;1.80;;
75698;SDS011;64313;51.018;13.742;2023-04-25T01:26:01;5.50;;;2.03;;
75698;SDS011;64313;51.018;13.742;2023-04-25T01:28:28;6.47;;;2.58;;
75698;SDS011;64313;51.018;13.742;2023-04-25T01:30:53;4.70;;;2.25;;
75698;SDS011;64313;51.018;13.742;2023-04-25T01:33:20;6.07;;;2.28;;
75698;SDS011;64313;51.018;13.742;2023-04-25T01:35:46;6.28;;;2.10;;
75698;SDS011;64313;51.018;13.742;2023-04-25T01:38:12;6.95;;;2.22;;
75698;SDS011;64313;51.018;13.742;2023-04-25T01:40:38;6.45;;;2.20;;
75698;SDS011;64313;51.018;13.742;2023-04-25T01:43:05;6.63;;;2.00;;
75698;SDS011;64313;51.018;13.742;2023-04-25T01:45:33;5.85;;;2.15;;
75698;SDS011;64313;51.018;13.742;2023-04-25T01:47:58;4.60;;;1.77;;
75698;SDS011;64313;51.018;13.742;2023-04-25T01:50:24;4.55;;;2.10;;
75698;SDS011;64313;51.018;13.742;2023-04-25T01:52:50;4.82;;;2.08;;
75698;SDS011;64313;51.018;13.742;2023-04-25T01:55:16;4.65;;;2.10;;
75698;SDS011;64313;51.018;13.742;2023-04-25T01:57:51;5.65;;;2.05;;
75698;SDS011;64313;51.018;13.742;2023-04-25T02:00:22;5.45;;;1.90;;
75698;SDS011;64313;51.018;13.742;2023-04-25T02:02:48;5.22;;;1.98;;
75698;SDS011;64313;51.018;13.742;2023-04-25T02:05:21;5.13;;;1.90;;
75698;SDS011;64313;51.018;13.742;2023-04-25T02:07:47;5.82;;;2.17;;
75698;SDS011;64313;51.018;13.742;2023-04-25T02:10:13;5.07;;;1.80;;
75698;SDS011;64313;51.018;13.742;2023-04-25T02:12:50;4.43;;;2.08;;
75698;SDS011;64313;51.018;13.742;2023-04-25T02:15:21;5.38;;;1.92;;
75698;SDS011;64313;51.018;13.742;2023-04-25T02:17:50;6.03;;;1.92;;
75698;SDS011;64313;51.018;13.742;2023-04-25T02:20:18;5.20;;;1.90;;
75698;SDS011;64313;51.018;13.742;2023-04-25T02:22:45;4.43;;;1.98;;
75698;SDS011;64313;51.018;13.742;2023-04-25T02:25:10;5.45;;;2.28;;
75698;SDS011;64313;51.018;13.742;2023-04-25T02:27:36;6.13;;;2.30;;
75698;SDS011;64313;51.018;13.742;2023-04-25T02:30:02;6.82;;;2.22;;
75698;SDS011;64313;51.018;13.742;2023-04-25T02:32:32;5.05;;;1.80;;
75698;SDS011;64313;51.018;13.742;2023-04-25T02:34:59;6.28;;;2.15;;
75698;SDS011;64313;51.018;13.742;2023-04-25T02:37:29;5.68;;;2.00;;
75698;SDS011;64313;51.018;13.742;2023-04-25T02:39:58;4.97;;;1.80;;
75698;SDS011;64313;51.018;13.742;2023-04-25T02:42:23;6.07;;;2.30;;
75698;SDS011;64313;51.018;13.742;2023-04-25T02:44:49;5.93;;;2.00;;
75698;SDS011;64313;51.018;13.742;2023-04-25T02:47:14;4.78;;;2.10;;
75698;SDS011;64313;51.018;13.742;2023-04-25T02:49:39;4.38;;;1.95;;
75698;SDS011;64313;51.018;13.742;2023-04-25T02:52:05;5.03;;;1.80;;
75698;SDS011;64313;51.018;13.742;2023-04-25T02:54:30;5.00;;;2.03;;
75698;SDS011;64313;51.018;13.742;2023-04-25T02:56:57;5.72;;;2.20;;
75698;SDS011;64313;51.018;13.742;2023-04-25T02:59:28;5.07;;;2.00;;
75698;SDS011;64313;51.018;13.742;2023-04-25T03:01:53;3.92;;;1.83;;
75698;SDS011;64313;51.018;13.742;2023-04-25T03:04:20;5.15;;;2.03;;
75698;SDS011;64313;51.018;13.742;2023-04-25T03:06:46;3.95;;;1.63;;
75698;SDS011;64313;51.018;13.742;2023-04-25T03:09:12;4.82;;;1.85;;
75698;SDS011;64313;51.018;13.742;2023-04-25T03:11:38;5.47;;;1.95;;
75698;SDS011;64313;51.018;13.742;2023-04-25T03:14:04;5.78;;;2.13;;
75698;SDS011;64313;51.018;13.742;2023-04-25T03:16:29;4.63;;;2.05;;
75698;SDS011;64313;51.018;13.742;2023-04-25T03:18:55;4.63;;;2.00;;
75698;SDS011;64313;51.018;13.742;2023-04-25T03:21:21;4.40;;;2.03;;
75698;SDS011;64313;51.018;13.742;2023-04-25T03:23:46;7.38;;;2.30;;
75698;SDS011;64313;51.018;13.742;2023-04-25T03:26:12;5.35;;;2.20;;
75698;SDS011;64313;51.018;13.742;2023-04-25T03:28:37;6.50;;;2.40;;
75698;SDS011;64313;51.018;13.742;2023-04-25T03:31:02;6.05;;;2.10;;
75698;SDS011;64313;51.018;13.742;2023-04-25T03:33:28;5.38;;;2.13;;
75698;SDS011;64313;51.018;13.742;2023-04-25T03:35:54;4.72;;;2.30;;
75698;SDS011;64313;51.018;13.742;2023-04-25T03:38:20;6.45;;;2.40;;
75698;SDS011;64313;51.018;13.742;2023-04-25T03:40:45;5.47;;;2.22;;
75698;SDS011;64313;51.018;13.742;2023-04-25T03:43:18;4.60;;;2.10;;
75698;SDS011;64313;51.018;13.742;2023-04-25T03:48:18;5.53;;;2.63;;
75698;SDS011;64313;51.018;13.742;2023-04-25T03:50:47;6.63;;;2.50;;
75698;SDS011;64313;51.018;13.742;2023-04-25T03:53:12;6.20;;;2.10;;
75698;SDS011;64313;51.018;13.742;2023-04-25T03:55:57;5.25;;;2.63;;
75698;SDS011;64313;51.018;13.742;2023-04-25T03:58:23;5.22;;;2.20;;
75698;SDS011;64313;51.018;13.742;2023-04-25T04:00:49;7.07;;;3.00;;
75698;SDS011;64313;51.018;13.742;2023-04-25T04:03:14;5.40;;;2.70;;
75698;SDS011;64313;51.018;13.742;2023-04-25T04:05:44;5.78;;;2.33;;
75698;SDS011;64313;51.018;13.742;2023-04-25T04:08:10;5.20;;;2.60;;
75698;SDS011;64313;51.018;13.742;2023-04-25T04:10:37;9.50;;;3.20;;
75698;SDS011;64313;51.018;13.742;2023-04-25T04:13:03;7.75;;;3.22;;
75698;SDS011;64313;51.018;13.742;2023-04-25T04:15:28;8.45;;;3.47;;
75698;SDS011;64313;51.018;13.742;2023-04-25T04:17:54;8.30;;;3.78;;
75698;SDS011;64313;51.018;13.742;2023-04-25T04:20:19;7.30;;;3.38;;
75698;SDS011;64313;51.018;13.742;2023-04-25T04:22:45;7.57;;;3.60;;
75698;SDS011;64313;51.018;13.742;2023-04-25T04:25:13;8.70;;;3.47;;
75698;SDS011;64313;51.018;13.742;2023-04-25T04:27:57;8.27;;;3.78;;
75698;SDS011;64313;51.018;13.742;2023-04-25T04:30:42;7.78;;;3.30;;
75698;SDS011;64313;51.018;13.742;2023-04-25T04:33:10;7.75;;;3.28;;
75698;SDS011;64313;51.018;13.742;2023-04-25T04:35:37;7.15;;;3.22;;
75698;SDS011;64313;51.018;13.742;2023-04-25T04:38:03;5.50;;;2.80;;
75698;SDS011;64313;51.018;13.742;2023-04-25T04:40:32;6.72;;;2.90;;
75698;SDS011;64313;51.018;13.742;2023-04-25T04:43:06;7.57;;;2.85;;
75698;SDS011;64313;51.018;13.742;2023-04-25T04:45:42;6.70;;;2.45;;
75698;SDS011;64313;51.018;13.742;2023-04-25T04:48:31;6.15;;;2.65;;
75698;SDS011;64313;51.018;13.742;2023-04-25T04:51:19;6.07;;;2.70;;
75698;SDS011;64313;51.018;13.742;2023-04-25T04:53:58;6.85;;;2.88;;
75698;SDS011;64313;51.018;13.742;2023-04-25T04:56:45;6.10;;;2.85;;
75698;SDS011;64313;51.018;13.742;2023-04-25T04:59:27;6.47;;;2.60;;
75698;SDS011;64313;51.018;13.742;2023-04-25T05:02:07;7.00;;;2.58;;
75698;SDS011;64313;51.018;13.742;2023-04-25T05:04:49;7.78;;;3.10;;
75698;SDS011;64313;51.018;13.742;2023-04-25T05:07:28;7.10;;;2.50;;
75698;SDS011;64313;51.018;13.742;2023-04-25T05:10:05;5.78;;;2.70;;
75698;SDS011;64313;51.018;13.742;2023-04-25T05:12:49;5.60;;;2.60;;
75698;SDS011;64313;51.018;13.742;2023-04-25T05:15:31;6.18;;;2.38;;
75698;SDS011;64313;51.018;13.742;2023-04-25T05:18:12;7.53;;;2.75;;
75698;SDS011;64313;51.018;13.742;2023-04-25T05:20:45;6.18;;;2.70;;
75698;SDS011;64313;51.018;13.742;2023-04-25T05:23:19;5.82;;;2.88;;
75698;SDS011;64313;51.018;13.742;2023-04-25T05:26:03;6.72;;;2.50;;
75698;SDS011;64313;51.018;13.742;2023-04-25T05:28:34;6.30;;;2.67;;
75698;SDS011;64313;51.018;13.742;2023-04-25T05:31:20;6.78;;;2.42;;
75698;SDS011;64313;51.018;13.742;2023-04-25T05:34:01;7.97;;;2.85;;
75698;SDS011;64313;51.018;13.742;2023-04-25T05:36:38;7.55;;;3.47;;
75698;SDS011;64313;51.018;13.742;2023-04-25T05:39:04;5.80;;;2.60;;
75698;SDS011;64313;51.018;13.742;2023-04-25T05:42:03;6.65;;;2.42;;
75698;SDS011;64313;51.018;13.742;2023-04-25T05:44:47;7.55;;;2.53;;
75698;SDS011;64313;51.018;13.742;2023-04-25T05:47:25;5.80;;;2.58;;
75698;SDS011;64313;51.018;13.742;2023-04-25T05:50:07;5.88;;;2.63;;
75698;SDS011;64313;51.018;13.742;2023-04-25T05:52:43;7.18;;;3.00;;
75698;SDS011;64313;51.018;13.742;2023-04-25T05:55:28;5.70;;;2.38;;
75698;SDS011;64313;51.018;13.742;2023-04-25T05:57:54;6.20;;;2.55;;
75698;SDS011;64313;51.018;13.742;2023-04-25T06:00:21;7.80;;;2.65;;
75698;SDS011;64313;51.018;13.742;2023-04-25T06:02:48;5.80;;;2.53;;
75698;SDS011;64313;51.018;13.742;2023-04-25T06:05:13;7.57;;;2.83;;
75698;SDS011;64313;51.018;13.742;2023-04-25T06:07:39;7.60;;;2.50;;
75698;SDS011;64313;51.018;13.742;2023-04-25T06:10:04;6.03;;;2.33;;
75698;SDS011;64313;51.018;13.742;2023-04-25T06:12:32;7.57;;;2.72;;
75698;SDS011;64313;51.018;13.742;2023-04-25T06:14:58;6.57;;;2.45;;
75698;SDS011;64313;51.018;13.742;2023-04-25T06:17:23;5.45;;;2.22;;
75698;SDS011;64313;51.018;13.742;2023-04-25T06:19:50;4.65;;;2.30;;
75698;SDS011;64313;51.018;13.742;2023-04-25T06:22:15;6.28;;;2.70;;
75698;SDS011;64313;51.018;13.742;2023-04-25T06:24:40;5.43;;;2.40;;
75698;SDS011;64313;51.018;13.742;2023-04-25T06:27:06;7.10;;;2.53;;
75698;SDS011;64313;51.018;13.742;2023-04-25T06:29:31;6.90;;;3.03;;
75698;SDS011;64313;51.018;13.742;2023-04-25T06:31:57;7.47;;;3.28;;
75698;SDS011;64313;51.018;13.742;2023-04-25T06:34:23;6.65;;;2.90;;
75698;SDS011;64313;51.018;13.742;2023-04-25T06:36:48;7.63;;;3.15;;
75698;SDS011;64313;51.018;13.742;2023-04-25T06:39:15;7.10;;;3.28;;
75698;SDS011;64313;51.018;13.742;2023-04-25T06:41:40;5.93;;;3.20;;
75698;SDS011;64313;51.018;13.742;2023-04-25T06:44:13;7.28;;;3.25;;
75698;SDS011;64313;51.018;13.742;2023-04-25T06:46:47;6.38;;;3.13;;
75698;SDS011;64313;51.018;13.742;2023-04-25T06:49:13;10.40;;;3.28;;
75698;SDS011;64313;51.018;13.742;2023-04-25T06:51:38;10.45;;;3.33;;
75698;SDS011;64313;51.018;13.742;2023-04-25T06:54:04;8.18;;;3.25;;
75698;SDS011;64313;51.018;13.742;2023-04-25T06:56:38;6.45;;;3.20;;
75698;SDS011;64313;51.018;13.742;2023-04-25T06:59:09;7.13;;;2.90;;
75698;SDS011;64313;51.018;13.742;2023-04-25T07:01:37;7.03;;;3.58;;
75698;SDS011;64313;51.018;13.742;2023-04-25T07:04:06;8.18;;;3.25;;
75698;SDS011;64313;51.018;13.742;2023-04-25T07:06:33;6.75;;;3.28;;
75698;SDS011;64313;51.018;13.742;2023-04-25T07:08:59;8.27;;;3.40;;
75698;SDS011;64313;51.018;13.742;2023-04-25T07:11:25;6.15;;;3.10;;
75698;SDS011;64313;51.018;13.742;2023-04-25T07:13:51;8.60;;;3.63;;
75698;SDS011;64313;51.018;13.742;2023-04-25T07:16:16;7.60;;;4.00;;
75698;SDS011;64313;51.018;13.742;2023-04-25T07:18:42;9.20;;;3.75;;
75698;SDS011;64313;51.018;13.742;2023-04-25T07:21:08;10.82;;;4.05;;
75698;SDS011;64313;51.018;13.742;2023-04-25T07:23:35;7.43;;;3.28;;
75698;SDS011;64313;51.018;13.742;2023-04-25T07:26:07;7.65;;;3.30;;
75698;SDS011;64313;51.018;13.742;2023-04-25T07:28:32;6.57;;;3.20;;
75698;SDS011;64313;51.018;13.742;2023-04-25T07:30:58;6.75;;;2.63;;
75698;SDS011;64313;51.018;13.742;2023-04-25T07:33:23;6.30;;;2.83;;
75698;SDS011;64313;51.018;13.742;2023-04-25T07:35:49;6.68;;;2.90;;
75698;SDS011;64313;51.018;13.742;2023-04-25T07:38:16;8.33;;;2.70;;
75698;SDS011;64313;51.018;13.742;2023-04-25T07:40:42;6.03;;;2.70;;
75698;SDS011;64313;51.018;13.742;2023-04-25T07:43:09;6.15;;;2.15;;
75698;SDS011;64313;51.018;13.742;2023-04-25T07:45:45;7.05;;;2.33;;
75698;SDS011;64313;51.018;13.742;2023-04-25T07:48:16;5.57;;;2.55;;
75698;SDS011;64313;51.018;13.742;2023-04-25T07:50:43;6.57;;;2.45;;
75698;SDS011;64313;51.018;13.742;2023-04-25T07:53:09;6.03;;;2.20;;
75698;SDS011;64313;51.018;13.742;2023-04-25T07:55:42;7.32;;;1.88;;
75698;SDS011;64313;51.018;13.742;2023-04-25T07:58:13;8.05;;;2.65;;
75698;SDS011;64313;51.018;13.742;2023-04-25T08:00:42;5.40;;;2.10;;
75698;SDS011;64313;51.018;13.742;2023-04-25T08:03:26;6.70;;;2.00;;
75698;SDS011;64313;51.018;13.742;2023-04-25T08:05:53;6.70;;;2.30;;
75698;SDS011;64313;51.018;13.742;2023-04-25T08:08:18;5.53;;;2.15;;
75698;SDS011;64313;51.018;13.742;2023-04-25T08:10:44;5.78;;;2.15;;
75698;SDS011;64313;51.018;13.742;2023-04-25T08:13:11;7.57;;;2.13;;
75698;SDS011;64313;51.018;13.742;2023-04-25T08:15:39;4.72;;;1.88;;
75698;SDS011;64313;51.018;13.742;2023-04-25T08:18:04;5.82;;;1.80;;
75698;SDS011;64313;51.018;13.742;2023-04-25T08:20:31;5.40;;;2.17;;
75698;SDS011;64313;51.018;13.742;2023-04-25T08:22:58;6.93;;;2.10;;
75698;SDS011;64313;51.018;13.742;2023-04-25T08:25:38;5.82;;;1.80;;
75698;SDS011;64313;51.018;13.742;2023-04-25T08:28:03;4.90;;;1.98;;
75698;SDS011;64313;51.018;13.742;2023-04-25T08:30:29;6.43;;;2.10;;
75698;SDS011;64313;51.018;13.742;2023-04-25T08:32:55;8.43;;;2.40;;
75698;SDS011;64313;51.018;13.742;2023-04-25T08:35:37;8.50;;;2.28;;
75698;SDS011;64313;51.018;13.742;2023-04-25T08:38:02;5.32;;;2.20;;
75698;SDS011;64313;51.018;13.742;2023-04-25T08:40:28;5.13;;;1.77;;
75698;SDS011;64313;51.018;13.742;2023-04-25T08:43:00;5.30;;;2.00;;
75698;SDS011;64313;51.018;13.742;2023-04-25T08:45:28;4.90;;;1.80;;
75698;SDS011;64313;51.018;13.742;2023-04-25T08:47:56;5.45;;;2.05;;
75698;SDS011;64313;51.018;13.742;2023-04-25T08:50:22;4.57;;;2.15;;
75698;SDS011;64313;51.018;13.742;2023-04-25T08:52:50;6.78;;;2.28;;
75698;SDS011;64313;51.018;13.742;2023-04-25T08:55:17;5.50;;;2.00;;
75698;SDS011;64313;51.018;13.742;2023-04-25T08:57:43;5.93;;;2.10;;
75698;SDS011;64313;51.018;13.742;2023-04-25T09:00:10;5.72;;;2.42;;
75698;SDS011;64313;51.018;13.742;2023-04-25T09:02:39;8.93;;;2.60;;
75698;SDS011;64313;51.018;13.742;2023-04-25T09:05:06;6.97;;;2.22;;
75698;SDS011;64313;51.018;13.742;2023-04-25T09:07:35;6.07;;;2.17;;
75698;SDS011;64313;51.018;13.742;2023-04-25T09:10:01;6.93;;;2.95;;
75698;SDS011;64313;51.018;13.742;2023-04-25T09:12:29;5.88;;;2.53;;
75698;SDS011;64313;51.018;13.742;2023-04-25T09:15:11;6.15;;;2.70;;
75698;SDS011;64313;51.018;13.742;2023-04-25T09:17:59;6.03;;;2.67;;
75698;SDS011;64313;51.018;13.742;2023-04-25T09:20:32;5.50;;;2.40;;
75698;SDS011;64313;51.018;13.742;2023-04-25T09:23:07;5.65;;;2.40;;
75698;SDS011;64313;51.018;13.742;2023-04-25T09:25:36;6.95;;;2.80;;
75698;SDS011;64313;51.018;13.742;2023-04-25T09:28:07;6.75;;;2.85;;
75698;SDS011;64313;51.018;13.742;2023-04-25T09:30:33;6.20;;;2.80;;
75698;SDS011;64313;51.018;13.742;2023-04-25T09:33:17;5.25;;;2.83;;
75698;SDS011;64313;51.018;13.742;2023-04-25T09:35:47;6.78;;;2.85;;
75698;SDS011;64313;51.018;13.742;2023-04-25T09:38:25;6.10;;;2.83;;
75698;SDS011;64313;51.018;13.742;2023-04-25T09:40:55;6.03;;;2.63;;
75698;SDS011;64313;51.018;13.742;2023-04-25T09:43:35;5.38;;;2.60;;
75698;SDS011;64313;51.018;13.742;2023-04-25T09:46:02;7.93;;;2.70;;
75698;SDS011;64313;51.018;13.742;2023-04-25T09:48:29;5.65;;;3.00;;
75698;SDS011;64313;51.018;13.742;2023-04-25T09:53:44;10.13;;;2.95;;
75698;SDS011;64313;51.018;13.742;2023-04-25T09:56:22;5.63;;;2.55;;
75698;SDS011;64313;51.018;13.742;2023-04-25T09:58:49;4.93;;;2.63;;
75698;SDS011;64313;51.018;13.742;2023-04-25T10:01:18;5.47;;;2.50;;
75698;SDS011;64313;51.018;13.742;2023-04-25T10:03:59;8.80;;;3.83;;
75698;SDS011;64313;51.018;13.742;2023-04-25T10:06:40;8.02;;;3.38;;
75698;SDS011;64313;51.018;13.742;2023-04-25T10:09:08;6.88;;;2.90;;
75698;SDS011;64313;51.018;13.742;2023-04-25T10:11:33;6.85;;;3.20;;
75698;SDS011;64313;51.018;13.742;2023-04-25T10:14:00;6.03;;;2.83;;
75698;SDS011;64313;51.018;13.742;2023-04-25T10:16:26;6.07;;;3.00;;
75698;SDS011;64313;51.018;13.742;2023-04-25T10:18:53;7.70;;;3.13;;
75698;SDS011;64313;51.018;13.742;2023-04-25T10:21:19;5.70;;;2.53;;
75698;SDS011;64313;51.018;13.742;2023-04-25T10:23:46;7.13;;;2.80;;
75698;SDS011;64313;51.018;13.742;2023-04-25T10:26:13;6.57;;;2.63;;
75698;SDS011;64313;51.018;13.742;2023-04-25T10:28:55;5.70;;;2.70;;
75698;SDS011;64313;51.018;13.742;2023-04-25T10:31:24;6.47;;;2.42;;
75698;SDS011;64313;51.018;13.742;2023-04-25T10:33:50;4.50;;;2.25;;
75698;SDS011;64313;51.018;13.742;2023-04-25T10:36:19;5.82;;;2.25;;
75698;SDS011;64313;51.018;13.742;2023-04-25T10:38:47;7.75;;;2.75;;
75698;SDS011;64313;51.018;13.742;2023-04-25T10:41:15;7.90;;;2.97;;
75698;SDS011;64313;51.018;13.742;2023-04-25T10:43:43;6.55;;;2.60;;
75698;SDS011;64313;51.018;13.742;2023-04-25T10:48:49;8.10;;;3.03;;
75698;SDS011;64313;51.018;13.742;2023-04-25T10:53:43;5.72;;;2.63;;
75698;SDS011;64313;51.018;13.742;2023-04-25T10:56:19;6.10;;;2.88;;
75698;SDS011;64313;51.018;13.742;2023-04-25T10:58:48;6.35;;;3.05;;
75698;SDS011;64313;51.018;13.742;2023-04-25T11:01:15;6.30;;;2.92;;
75698;SDS011;64313;51.018;13.742;2023-04-25T11:03:45;5.53;;;2.70;;
75698;SDS011;64313;51.018;13.742;2023-04-25T11:06:15;7.28;;;3.25;;
75698;SDS011;64313;51.018;13.742;2023-04-25T11:08:48;6.50;;;2.67;;
75698;SDS011;64313;51.018;13.742;2023-04-25T11:11:17;7.03;;;2.83;;
75698;SDS011;64313;51.018;13.742;2023-04-25T11:13:43;6.38;;;3.17;;
75698;SDS011;64313;51.018;13.742;2023-04-25T11:16:09;10.02;;;3.72;;
75698;SDS011;64313;51.018;13.742;2023-04-25T11:18:35;7.50;;;3.42;;
75698;SDS011;64313;51.018;13.742;2023-04-25T11:21:02;6.95;;;3.10;;
75698;SDS011;64313;51.018;13.742;2023-04-25T11:23:28;8.63;;;3.42;;
75698;SDS011;64313;51.018;13.742;2023-04-25T11:25:57;7.72;;;3.35;;
75698;SDS011;64313;51.018;13.742;2023-04-25T11:28:25;7.50;;;3.10;;
75698;SDS011;64313;51.018;13.742;2023-04-25T11:30:51;8.95;;;3.17;;
75698;SDS011;64313;51.018;13.742;2023-04-25T11:33:17;4.82;;;1.85;;
75698;SDS011;64313;51.018;13.742;2023-04-25T11:35:42;5.43;;;1.88;;
75698;SDS011;64313;51.018;13.742;2023-04-25T11:38:08;4.88;;;1.83;;
75698;SDS011;64313;51.018;13.742;2023-04-25T11:40:33;5.50;;;1.70;;
75698;SDS011;64313;51.018;13.742;2023-04-25T11:43:00;5.25;;;1.50;;
75698;SDS011;64313;51.018;13.742;2023-04-25T11:45:26;5.75;;;1.67;;
75698;SDS011;64313;51.018;13.742;2023-04-25T11:47:51;4.20;;;1.20;;
75698;SDS011;64313;51.018;13.742;2023-04-25T11:50:17;6.25;;;1.50;;
75698;SDS011;64313;51.018;13.742;2023-04-25T11:52:44;6.90;;;1.58;;
75698;SDS011;64313;51.018;13.742;2023-04-25T11:55:14;8.05;;;1.85;;
75698;SDS011;64313;51.018;13.742;2023-04-25T11:57:41;4.85;;;1.60;;
75698;SDS011;64313;51.018;13.742;2023-04-25T12:02:46;4.25;;;1.42;;
75698;SDS011;64313;51.018;13.742;2023-04-25T12:05:14;6.30;;;1.85;;
75698;SDS011;64313;51.018;13.742;2023-04-25T12:07:43;6.78;;;1.58;;
75698;SDS011;64313;51.018;13.742;2023-04-25T12:10:09;5.32;;;1.77;;
75698;SDS011;64313;51.018;13.742;2023-04-25T12:12:36;7.45;;;1.90;;
75698;SDS011;64313;51.018;13.742;2023-04-25T12:15:12;5.70;;;1.67;;
75698;SDS011;64313;51.018;13.742;2023-04-25T12:17:40;8.48;;;2.03;;
75698;SDS011;64313;51.018;13.742;2023-04-25T12:20:13;6.78;;;1.88;;
75698;SDS011;64313;51.018;13.742;2023-04-25T12:22:40;8.82;;;1.50;;
75698;SDS011;64313;51.018;13.742;2023-04-25T12:25:09;7.88;;;2.30;;
75698;SDS011;64313;51.018;13.742;2023-04-25T12:27:38;6.80;;;1.63;;
75698;SDS011;64313;51.018;13.742;2023-04-25T12:30:07;6.30;;;1.80;;
75698;SDS011;64313;51.018;13.742;2023-04-25T12:32:33;7.20;;;1.67;;
75698;SDS011;64313;51.018;13.742;2023-04-25T12:34:58;6.93;;;1.83;;
75698;SDS011;64313;51.018;13.742;2023-04-25T12:37:24;6.55;;;1.88;;
75698;SDS011;64313;51.018;13.742;2023-04-25T12:39:49;7.50;;;1.92;;
75698;SDS011;64313;51.018;13.742;2023-04-25T12:42:15;7.00;;;2.05;;
75698;SDS011;64313;51.018;13.742;2023-04-25T12:44:40;5.32;;;1.60;;
75698;SDS011;64313;51.018;13.742;2023-04-25T12:47:06;9.32;;;2.33;;
75698;SDS011;64313;51.018;13.742;2023-04-25T12:49:31;7.72;;;1.83;;
75698;SDS011;64313;51.018;13.742;2023-04-25T12:51:57;6.28;;;1.60;;
75698;SDS011;64313;51.018;13.742;2023-04-25T12:54:24;7.63;;;2.03;;
75698;SDS011;64313;51.018;13.742;2023-04-25T12:56:50;10.30;;;2.30;;
75698;SDS011;64313;51.018;13.742;2023-04-25T12:59:16;6.63;;;2.00;;
75698;SDS011;64313;51.018;13.742;2023-04-25T13:01:41;6.90;;;1.80;;
75698;SDS011;64313;51.018;13.742;2023-04-25T13:04:06;7.68;;;2.30;;
75698;SDS011;64313;51.018;13.742;2023-04-25T13:06:32;6.75;;;1.98;;
75698;SDS011;64313;51.018;13.742;2023-04-25T13:08:57;5.53;;;2.05;;
75698;SDS011;64313;51.018;13.742;2023-04-25T13:11:22;8.68;;;2.10;;
75698;SDS011;64313;51.018;13.742;2023-04-25T13:13:48;8.70;;;2.45;;
75698;SDS011;64313;51.018;13.742;2023-04-25T13:16:13;9.80;;;2.20;;
75698;SDS011;64313;51.018;13.742;2023-04-25T13:18:39;8.70;;;2.40;;
75698;SDS011;64313;51.018;13.742;2023-04-25T13:21:05;8.93;;;2.58;;
75698;SDS011;64313;51.018;13.742;2023-04-25T13:23:30;8.63;;;2.30;;
75698;SDS011;64313;51.018;13.742;2023-04-25T13:25:56;9.43;;;2.55;;
75698;SDS011;64313;51.018;13.742;2023-04-25T13:28:25;9.18;;;2.35;;
75698;SDS011;64313;51.018;13.742;2023-04-25T13:30:51;8.95;;;2.40;;
75698;SDS011;64313;51.018;13.742;2023-04-25T13:33:16;9.55;;;2.90;;
75698;SDS011;64313;51.018;13.742;2023-04-25T13:35:42;10.95;;;2.85;;
75698;SDS011;64313;51.018;13.742;2023-04-25T13:38:07;10.65;;;2.45;;
75698;SDS011;64313;51.018;13.742;2023-04-25T13:40:33;11.00;;;2.70;;
75698;SDS011;64313;51.018;13.742;2023-04-25T13:42:59;10.48;;;2.53;;
75698;SDS011;64313;51.018;13.742;2023-04-25T13:45:25;9.48;;;2.33;;
75698;SDS011;64313;51.018;13.742;2023-04-25T13:47:50;8.07;;;2.28;;
75698;SDS011;64313;51.018;13.742;2023-04-25T13:50:15;9.52;;;2.28;;
75698;SDS011;64313;51.018;13.742;2023-04-25T13:52:41;7.78;;;1.92;;
75698;SDS011;64313;51.018;13.742;2023-04-25T13:55:07;10.45;;;2.45;;
75698;SDS011;64313;51.018;13.742;2023-04-25T13:57:34;9.00;;;2.45;;
75698;SDS011;64313;51.018;13.742;2023-04-25T14:00:00;9.57;;;2.50;;
75698;SDS011;64313;51.018;13.742;2023-04-25T14:02:31;7.43;;;2.17;;
75698;SDS011;64313;51.018;13.742;2023-04-25T14:04:57;7.05;;;2.25;;
75698;SDS011;64313;51.018;13.742;2023-04-25T14:07:22;7.47;;;2.10;;
75698;SDS011;64313;51.018;13.742;2023-04-25T14:09:47;6.72;;;2.20;;
75698;SDS011;64313;51.018;13.742;2023-04-25T14:12:13;8.45;;;2.30;;
75698;SDS011;64313;51.018;13.742;2023-04-25T14:14:38;5.45;;;2.00;;
75698;SDS011;64313;51.018;13.742;2023-04-25T14:17:03;9.23;;;2.30;;
75698;SDS011;64313;51.018;13.742;2023-04-25T14:19:29;10.13;;;2.53;;
75698;SDS011;64313;51.018;13.742;2023-04-25T14:21:55;8.02;;;2.28;;
75698;SDS011;64313;51.018;13.742;2023-04-25T14:24:20;8.68;;;2.10;;
75698;SDS011;64313;51.018;13.742;2023-04-25T14:26:46;5.82;;;2.03;;
75698;SDS011;64313;51.018;13.742;2023-04-25T14:29:11;8.50;;;2.22;;
75698;SDS011;64313;51.018;13.742;2023-04-25T14:31:37;10.18;;;2.40;;
75698;SDS011;64313;51.018;13.742;2023-04-25T14:34:03;8.55;;;2.10;;
75698;SDS011;64313;51.018;13.742;2023-04-25T14:36:29;10.00;;;2.83;;
75698;SDS011;64313;51.018;13.742;2023-04-25T14:38:55;10.25;;;2.63;;
75698;SDS011;64313;51.018;13.742;2023-04-25T14:41:21;12.88;;;2.53;;
75698;SDS011;64313;51.018;13.742;2023-04-25T14:43:48;7.45;;;2.33;;
75698;SDS011;64313;51.018;13.742;2023-04-25T14:46:13;10.52;;;2.50;;
75698;SDS011;64313;51.018;13.742;2023-04-25T14:48:39;8.02;;;2.40;;
75698;SDS011;64313;51.018;13.742;2023-04-25T14:51:04;9.10;;;2.58;;
75698;SDS011;64313;51.018;13.742;2023-04-25T14:53:30;8.63;;;2.95;;